Time;durP1;ratioP1;P1;durP2;ratioP2;P2;SDS_P1;SDS_P2;PMS_P1;PMS_P2;Temp;Humidity;BMP_temperature;BMP_pressure;BME280_temperature;BME280_humidity;BME280_pressure;Samples;Min_cycle;Max_cycle;Signal;HPM_P1;HPM_P2
2021/07/08 00:01:11;;;;;;;2.90;1.70;;;20.20;99.50;;;;;;5016233;28;20690;-84
2021/07/08 00:03:43;;;;;;;2.37;1.57;;;20.20;99.40;;;;;;4988442;28;20678;-84
2021/07/08 00:06:09;;;;;;;8.47;2.27;;;20.20;99.60;;;;;;5021589;28;20568;-84
2021/07/08 00:08:36;;;;;;;4.37;1.80;;;20.10;99.90;;;;;;4998961;28;20648;-84
2021/07/08 00:11:01;;;;;;;3.27;1.40;;;20.10;99.90;;;;;;5023396;28;20553;-84
2021/07/08 00:13:29;;;;;;;4.83;1.83;;;20.10;99.90;;;;;;4998231;28;20197;-84
2021/07/08 00:16:10;;;;;;;4.37;2.13;;;20.10;99.90;;;;;;4981872;28;20577;-84
2021/07/08 00:18:36;;;;;;;4.07;2.40;;;20.00;99.90;;;;;;5014258;28;20579;-84
2021/07/08 00:21:02;;;;;;;2.90;1.73;;;20.10;99.90;;;;;;5014445;28;21151;-84
2021/07/08 00:23:27;;;;;;;3.83;1.83;;;20.00;99.90;;;;;;5032038;28;20642;-84
2021/07/08 00:25:55;;;;;;;3.53;2.10;;;20.00;99.90;;;;;;5014550;28;20640;-84
2021/07/08 00:28:23;;;;;;;3.60;1.73;;;20.00;99.90;;;;;;5014171;28;20213;-84
2021/07/08 00:30:54;;;;;;;3.60;1.30;;;19.90;99.90;;;;;;5013665;28;20762;-84
2021/07/08 00:33:21;;;;;;;4.50;1.97;;;19.90;99.90;;;;;;5036143;28;20635;-85
2021/07/08 00:35:48;;;;;;;3.27;1.40;;;19.90;99.90;;;;;;4997970;28;20266;-84
2021/07/08 00:38:14;;;;;;;2.10;1.80;;;19.90;99.90;;;;;;5014278;28;20583;-85
2021/07/08 00:40:40;;;;;;;4.23;1.30;;;19.80;99.90;;;;;;5031808;28;20568;-85
2021/07/08 00:43:13;;;;;;;4.40;2.13;;;19.80;99.90;;;;;;4997588;28;20688;-85
2021/07/08 00:45:43;;;;;;;4.27;1.53;;;19.80;99.90;;;;;;5013853;28;20592;-84
2021/07/08 00:48:41;;;;;;;2.47;1.60;;;19.70;99.90;;;;;;4981514;28;20706;-85
2021/07/08 00:51:25;;;;;;;2.37;1.60;;;19.70;99.90;;;;;;4997858;28;20599;-84
2021/07/08 00:54:22;;;;;;;3.13;1.53;;;19.70;99.90;;;;;;5017617;28;20746;-85
2021/07/08 00:56:52;;;;;;;2.07;1.63;;;19.70;99.90;;;;;;4981716;28;20676;-84
2021/07/08 00:59:34;;;;;;;3.17;1.87;;;19.60;99.90;;;;;;4997253;28;21356;-84
2021/07/08 01:02:42;;;;;;;4.87;1.80;;;19.60;99.90;;;;;;5013380;28;20600;-84
2021/07/08 01:05:41;;;;;;;3.20;1.87;;;19.60;99.90;;;;;;4990086;28;21014;-84
2021/07/08 01:08:17;;;;;;;4.33;1.67;;;19.60;99.90;;;;;;4984109;28;20661;-84
2021/07/08 01:10:52;;;;;;;3.43;2.10;;;19.50;99.90;;;;;;5000426;28;20585;-84
2021/07/08 01:14:14;;;;;;;3.40;2.10;;;19.50;99.90;;;;;;5000728;28;20827;-84
2021/07/08 01:16:45;;;;;;;2.90;1.80;;;19.50;99.90;;;;;;4997558;28;20600;-84
2021/07/08 01:19:11;;;;;;;3.63;2.07;;;19.50;99.90;;;;;;4981409;28;20580;-84
2021/07/08 01:21:37;;;;;;;4.77;2.90;;;19.40;99.90;;;;;;4997222;28;20768;-85
2021/07/08 01:24:04;;;;;;;3.23;2.10;;;19.40;99.90;;;;;;4997104;28;20628;-85
2021/07/08 01:26:31;;;;;;;1.87;1.50;;;19.40;99.90;;;;;;5013699;28;20268;-85
2021/07/08 01:28:58;;;;;;;2.10;1.90;;;19.40;99.90;;;;;;5013686;28;20980;-85
2021/07/08 01:31:26;;;;;;;3.97;2.60;;;19.40;99.90;;;;;;5013667;28;20918;-85
2021/07/08 01:33:53;;;;;;;4.60;2.03;;;19.40;99.90;;;;;;5031508;28;20596;-85
2021/07/08 01:36:18;;;;;;;1.80;1.50;;;19.30;99.90;;;;;;5013899;28;20576;-85
2021/07/08 01:38:45;;;;;;;2.83;2.27;;;19.30;99.90;;;;;;5013231;28;20626;-85
2021/07/08 01:45:29;;;;;;;6.93;1.50;;;19.30;99.90;;;;;;5032992;28;20662;-85
2021/07/08 01:49:45;;;;;;;2.97;2.10;;;19.20;99.90;;;;;;5031316;28;20635;-85
2021/07/08 01:53:33;;;;;;;4.70;1.77;;;19.20;99.90;;;;;;5030069;28;20707;-85
2021/07/08 02:01:51;;;;;;;2.20;1.50;;;19.20;99.90;;;;;;4970019;28;20615;-85
2021/07/08 02:05:08;;;;;;;4.90;1.80;;;19.10;99.90;;;;;;4934319;28;20596;-85
2021/07/08 02:07:50;;;;;;;3.57;2.03;;;19.10;99.90;;;;;;4923396;28;20638;-85
2021/07/08 02:10:36;;;;;;;2.37;1.87;;;19.10;99.90;;;;;;5019232;28;20615;-85
2021/07/08 02:13:40;;;;;;;2.90;2.47;;;19.10;99.90;;;;;;5013667;28;20599;-85
2021/07/08 02:18:17;;;;;;;2.30;1.90;;;19.10;99.90;;;;;;5019136;28;20188;-85
2021/07/08 02:21:57;;;;;;;2.73;1.50;;;19.10;99.90;;;;;;4973277;28;20694;-85
2021/07/08 02:25:08;;;;;;;3.67;1.63;;;19.10;99.90;;;;;;4973195;28;20721;-84
2021/07/08 02:33:17;;;;;;;5.30;2.20;;;19.00;99.90;;;;;;4955128;29;20658;-84
2021/07/08 02:36:56;;;;;;;4.70;1.90;;;19.00;99.90;;;;;;4935800;29;20592;-84
2021/07/08 02:43:55;;;;;;;2.03;1.40;;;19.00;99.90;;;;;;4974543;28;20642;-84
2021/07/08 02:46:24;;;;;;;3.30;1.53;;;19.00;99.90;;;;;;4984697;28;20588;-85
2021/07/08 02:49:04;;;;;;;3.57;2.40;;;19.00;99.90;;;;;;4997658;28;20640;-84
2021/07/08 02:52:29;;;;;;;2.73;1.50;;;19.00;99.90;;;;;;5008130;28;20596;-84
2021/07/08 02:54:59;;;;;;;4.27;1.80;;;19.00;99.90;;;;;;5020753;23;20773;-85
2021/07/08 02:57:26;;;;;;;2.17;1.80;;;19.00;99.90;;;;;;5076576;28;21113;-85
2021/07/08 02:59:53;;;;;;;4.03;2.00;;;19.00;99.90;;;;;;5076625;28;20578;-84
2021/07/08 03:02:18;;;;;;;3.20;1.50;;;18.90;99.90;;;;;;5076766;28;20582;-84
2021/07/08 03:04:44;;;;;;;3.73;1.80;;;18.90;99.90;;;;;;5070713;28;20603;-85
2021/07/08 03:07:10;;;;;;;4.10;2.30;;;18.90;99.90;;;;;;5040938;28;20169;-85
2021/07/08 03:09:36;;;;;;;2.30;1.90;;;18.90;99.90;;;;;;5059008;28;20989;-85
2021/07/08 03:12:02;;;;;;;2.73;1.90;;;18.90;99.90;;;;;;5058394;28;20811;-84
2021/07/08 03:14:28;;;;;;;4.90;1.27;;;18.80;99.90;;;;;;5057949;28;20185;-84
2021/07/08 03:16:53;;;;;;;2.63;2.13;;;18.80;99.90;;;;;;5040263;28;20564;-84
2021/07/08 03:19:19;;;;;;;3.43;1.70;;;18.80;99.90;;;;;;5058639;28;20168;-85
2021/07/08 03:21:45;;;;;;;4.40;1.90;;;18.80;99.90;;;;;;5057221;28;20169;-84
2021/07/08 03:24:10;;;;;;;3.23;1.93;;;18.80;99.90;;;;;;5058233;28;20203;-85
2021/07/08 03:26:36;;;;;;;2.27;1.73;;;18.80;99.90;;;;;;5041822;28;20660;-85
2021/07/08 03:29:03;;;;;;;4.20;2.00;;;18.80;99.90;;;;;;5059133;28;20244;-85
2021/07/08 03:31:29;;;;;;;4.67;3.00;;;18.80;99.90;;;;;;5058765;28;20165;-76
2021/07/08 03:33:55;;;;;;;3.20;1.70;;;18.80;99.90;;;;;;5035057;28;20638;-76
2021/07/08 03:36:20;;;;;;;2.73;1.90;;;18.80;99.90;;;;;;5052631;28;20723;-76
2021/07/08 03:38:46;;;;;;;3.47;1.80;;;18.80;99.90;;;;;;5052483;28;20175;-76
2021/07/08 03:41:12;;;;;;;2.90;1.93;;;18.80;99.90;;;;;;5058063;28;20164;-76
2021/07/08 03:43:37;;;;;;;2.03;1.40;;;18.80;99.90;;;;;;5036297;28;20573;-76
2021/07/08 03:46:03;;;;;;;2.67;1.80;;;18.80;99.90;;;;;;5034536;28;20181;-78
2021/07/08 03:48:29;;;;;;;5.40;3.33;;;18.80;99.90;;;;;;5034406;28;20200;-77
2021/07/08 03:50:54;;;;;;;6.00;2.13;;;18.80;99.90;;;;;;5052470;28;20180;-77
2021/07/08 03:53:20;;;;;;;4.00;1.77;;;18.80;99.90;;;;;;5034784;28;20169;-77
2021/07/08 03:55:46;;;;;;;3.30;1.80;;;18.80;99.90;;;;;;5052140;28;20284;-77
2021/07/08 03:58:11;;;;;;;3.60;2.00;;;18.80;99.90;;;;;;5034549;28;20263;-77
2021/07/08 04:00:42;;;;;;;4.50;2.33;;;18.80;99.90;;;;;;5051051;28;20287;-77
2021/07/08 04:03:15;;;;;;;3.40;2.20;;;18.80;99.90;;;;;;5031189;28;20581;-77
2021/07/08 04:05:42;;;;;;;4.03;1.93;;;18.80;99.90;;;;;;5045396;28;20612;-77
2021/07/08 04:08:09;;;;;;;8.13;2.10;;;18.80;99.90;;;;;;5051810;28;20571;-77
2021/07/08 04:10:37;;;;;;;2.53;1.50;;;18.80;99.90;;;;;;5033688;28;20580;-77
2021/07/08 04:13:09;;;;;;;2.73;2.30;;;18.80;99.90;;;;;;5052150;28;20998;-77
2021/07/08 04:15:35;;;;;;;4.57;1.80;;;18.80;99.90;;;;;;5051812;28;20654;-77
2021/07/08 04:18:03;;;;;;;3.27;1.90;;;18.90;99.90;;;;;;5056743;28;20592;-77
2021/07/08 04:20:29;;;;;;;2.90;1.63;;;18.90;99.90;;;;;;5033893;28;20655;-77
2021/07/08 04:22:55;;;;;;;3.40;1.83;;;18.90;99.90;;;;;;5034024;28;20675;-77
2021/07/08 04:25:21;;;;;;;4.53;2.30;;;18.90;99.90;;;;;;5033956;28;20599;-76
2021/07/08 04:27:47;;;;;;;2.70;1.80;;;19.00;99.90;;;;;;5051700;28;20560;-76
2021/07/08 04:30:17;;;;;;;1.80;1.63;;;19.00;99.90;;;;;;5033634;28;20565;-76
2021/07/08 04:32:43;;;;;;;4.17;1.67;;;19.10;99.90;;;;;;5039456;28;21160;-75
2021/07/08 04:35:12;;;;;;;3.40;2.20;;;19.10;99.90;;;;;;5051197;28;20920;-75
2021/07/08 04:37:42;;;;;;;3.03;2.07;;;19.20;99.90;;;;;;5033837;28;20575;-76
2021/07/08 04:40:10;;;;;;;2.77;1.80;;;19.20;99.90;;;;;;5051576;28;20621;-75
2021/07/08 04:42:37;;;;;;;4.57;2.10;;;19.30;99.90;;;;;;5051696;28;20667;-76
2021/07/08 04:45:05;;;;;;;2.07;1.50;;;19.40;99.90;;;;;;5051601;28;20600;-76
2021/07/08 04:47:30;;;;;;;2.60;1.90;;;19.40;99.90;;;;;;5051606;28;20572;-76
2021/07/08 04:49:56;;;;;;;4.70;1.60;;;19.50;99.90;;;;;;5051518;28;20622;-76
2021/07/08 04:52:22;;;;;;;4.17;2.33;;;19.50;99.90;;;;;;5052038;28;20177;-77
2021/07/08 04:54:48;;;;;;;6.27;1.97;;;19.60;99.90;;;;;;5038107;28;20205;-76
2021/07/08 04:57:17;;;;;;;4.03;2.07;;;19.60;99.90;;;;;;5051493;28;20165;-77
2021/07/08 04:59:42;;;;;;;4.03;1.90;;;19.70;99.90;;;;;;5051139;28;20231;-77
2021/07/08 05:02:08;;;;;;;2.60;2.07;;;19.70;99.90;;;;;;5051207;28;20576;-78
2021/07/08 05:04:34;;;;;;;4.10;1.80;;;19.80;99.90;;;;;;5051254;28;20617;-75
2021/07/08 05:06:59;;;;;;;5.70;1.70;;;19.80;99.90;;;;;;5051202;28;20256;-76
2021/07/08 05:09:25;;;;;;;5.40;1.40;;;19.90;99.90;;;;;;5050957;28;20259;-76
2021/07/08 05:11:51;;;;;;;2.73;1.87;;;19.90;99.90;;;;;;5051347;28;20498;-76
2021/07/08 05:14:17;;;;;;;3.10;1.53;;;20.00;99.90;;;;;;5051334;28;20838;-76
2021/07/08 05:16:42;;;;;;;1.80;1.60;;;20.00;99.90;;;;;;5051347;28;20259;-76
2021/07/08 05:19:08;;;;;;;4.63;2.30;;;20.10;99.90;;;;;;5033241;28;20246;-76
2021/07/08 05:21:34;;;;;;;2.43;1.70;;;20.10;99.90;;;;;;5051118;28;20654;-76
2021/07/08 05:24:03;;;;;;;2.20;1.80;;;20.20;99.90;;;;;;5051422;28;20192;-76
2021/07/08 05:26:29;;;;;;;4.10;2.00;;;20.20;99.90;;;;;;5051295;28;20578;-76
2021/07/08 05:28:55;;;;;;;3.87;1.63;;;20.30;99.90;;;;;;5051020;28;20607;-76
2021/07/08 05:31:20;;;;;;;3.63;1.87;;;20.30;99.90;;;;;;5055222;28;20172;-76
2021/07/08 05:33:46;;;;;;;2.70;1.30;;;20.40;99.90;;;;;;5051237;28;20315;-76
2021/07/08 05:36:14;;;;;;;3.27;1.40;;;20.40;99.90;;;;;;5050999;28;20181;-77
2021/07/08 05:38:40;;;;;;;6.07;1.87;;;20.50;99.90;;;;;;5032968;28;20654;-77
2021/07/08 05:41:06;;;;;;;3.73;1.53;;;20.50;99.90;;;;;;5051084;28;21230;-77
2021/07/08 05:43:32;;;;;;;4.40;1.40;;;20.60;99.90;;;;;;5051114;28;20165;-77
2021/07/08 05:45:57;;;;;;;5.23;1.90;;;20.70;99.90;;;;;;5050767;28;20247;-77
2021/07/08 05:48:23;;;;;;;2.50;1.40;;;20.70;99.90;;;;;;5053689;28;20552;-77
2021/07/08 05:50:48;;;;;;;2.97;1.97;;;20.80;99.90;;;;;;5054799;28;20592;-76
2021/07/08 05:53:14;;;;;;;2.70;1.73;;;20.90;99.90;;;;;;5054808;28;20204;-77
2021/07/08 05:55:40;;;;;;;2.50;1.60;;;21.00;99.90;;;;;;5020176;28;20228;-78
2021/07/08 05:58:05;;;;;;;2.67;1.67;;;21.10;99.90;;;;;;5054837;28;20165;-78
2021/07/08 06:00:31;;;;;;;2.80;1.50;;;21.20;99.90;;;;;;5038777;28;20169;-83
2021/07/08 06:02:57;;;;;;;2.97;1.70;;;21.30;99.90;;;;;;5063642;28;20208;-83
2021/07/08 06:05:23;;;;;;;2.40;1.80;;;21.40;99.90;;;;;;5058385;28;21205;-83
2021/07/08 06:07:48;;;;;;;3.30;1.93;;;21.50;99.90;;;;;;5026159;28;20169;-82
2021/07/08 06:10:14;;;;;;;4.03;1.50;;;21.60;99.90;;;;;;5058525;28;20668;-82
2021/07/08 06:12:41;;;;;;;4.90;1.43;;;21.70;99.90;;;;;;5062643;28;20234;-81
2021/07/08 06:15:09;;;;;;;2.53;1.73;;;21.80;99.90;;;;;;5059134;28;20192;-81
2021/07/08 06:17:35;;;;;;;2.60;1.67;;;22.00;99.90;;;;;;5064496;28;20591;-80
2021/07/08 06:20:01;;;;;;;3.13;1.50;;;22.20;99.90;;;;;;5060616;28;20578;-81
2021/07/08 06:22:27;;;;;;;3.47;1.90;;;22.50;99.90;;;;;;5059951;28;20176;-80
2021/07/08 06:24:53;;;;;;;8.10;2.30;;;22.80;99.90;;;;;;5059133;28;20652;-80
2021/07/08 06:27:19;;;;;;;2.83;1.70;;;22.90;99.90;;;;;;5069581;28;20609;-79
2021/07/08 06:29:44;;;;;;;5.00;2.13;;;23.10;99.90;;;;;;5050255;28;20233;-80
2021/07/08 06:32:11;;;;;;;4.00;1.50;;;23.30;99.90;;;;;;5065839;28;20545;-80
2021/07/08 06:34:37;;;;;;;4.97;2.20;;;23.50;99.90;;;;;;5077975;28;20181;-80
2021/07/08 06:37:04;;;;;;;3.77;1.73;;;23.70;99.90;;;;;;5078814;28;20659;-79
2021/07/08 06:39:29;;;;;;;3.40;1.53;;;23.90;99.90;;;;;;5077150;28;20184;-81
2021/07/08 06:41:55;;;;;;;5.17;1.90;;;24.20;99.90;;;;;;5076078;28;20567;-82
2021/07/08 06:44:21;;;;;;;4.57;2.30;;;24.40;99.90;;;;;;5068647;28;20251;-80
2021/07/08 06:46:51;;;;;;;3.27;1.40;;;24.60;99.90;;;;;;5077968;28;20221;-81
2021/07/08 06:49:17;;;;;;;3.70;1.40;;;24.80;99.90;;;;;;5076143;28;20201;-80
2021/07/08 06:51:42;;;;;;;2.40;1.43;;;24.90;99.90;;;;;;5043438;28;20671;-81
2021/07/08 06:54:08;;;;;;;2.90;1.83;;;24.90;99.90;;;;;;5076094;28;20607;-80
2021/07/08 06:56:34;;;;;;;2.63;1.67;;;25.00;99.90;;;;;;5075428;28;20228;-82
2021/07/08 06:58:59;;;;;;;4.00;2.17;;;25.00;99.90;;;;;;5072083;28;20181;-81
2021/07/08 07:01:25;;;;;;;3.60;1.63;;;25.00;99.90;;;;;;5059569;28;20584;-81
2021/07/08 07:03:51;;;;;;;2.60;1.70;;;24.90;99.90;;;;;;5059570;28;20478;-80
2021/07/08 07:06:16;;;;;;;2.97;1.60;;;24.90;99.90;;;;;;5077882;28;20200;-80
2021/07/08 07:08:42;;;;;;;3.77;2.47;;;24.80;99.90;;;;;;5078005;28;20204;-80
2021/07/08 07:11:09;;;;;;;2.97;1.53;;;24.80;99.90;;;;;;5069609;28;20169;-81
2021/07/08 07:13:35;;;;;;;4.60;2.00;;;24.70;99.90;;;;;;5095130;28;20582;-81
2021/07/08 07:16:00;;;;;;;5.33;1.60;;;24.80;99.90;;;;;;5094288;28;20581;-80
2021/07/08 07:18:26;;;;;;;3.23;2.20;;;24.90;99.90;;;;;;5090980;28;20171;-79
2021/07/08 07:20:52;;;;;;;4.43;2.00;;;24.90;99.90;;;;;;5085295;28;20176;-80
2021/07/08 07:23:18;;;;;;;2.77;1.83;;;24.90;99.90;;;;;;5061231;28;20194;-81
2021/07/08 07:25:45;;;;;;;5.33;2.10;;;25.00;99.90;;;;;;5075907;28;20192;-80
2021/07/08 07:28:11;;;;;;;7.77;1.60;;;25.20;99.90;;;;;;5076005;28;20655;-80
2021/07/08 07:30:38;;;;;;;3.63;1.80;;;25.30;99.90;;;;;;5094244;28;20629;-81
2021/07/08 07:33:04;;;;;;;3.57;2.90;;;25.30;99.90;;;;;;5085588;28;20559;-80
2021/07/08 07:35:31;;;;;;;3.60;1.80;;;25.50;99.90;;;;;;5084531;28;20630;-79
2021/07/08 07:37:57;;;;;;;5.30;2.00;;;25.60;99.90;;;;;;5048420;28;20582;-81
2021/07/08 07:40:23;;;;;;;6.30;1.83;;;25.80;99.90;;;;;;5079057;28;20571;-81
2021/07/08 07:42:49;;;;;;;4.43;2.17;;;26.00;99.90;;;;;;5055864;28;20574;-81
2021/07/08 07:45:15;;;;;;;5.27;2.17;;;26.30;99.90;;;;;;5085788;28;20667;-81
2021/07/08 07:47:41;;;;;;;4.50;2.40;;;26.40;99.90;;;;;;5092997;28;20973;-80
2021/07/08 07:50:08;;;;;;;4.50;1.90;;;26.50;99.90;;;;;;5093854;28;20646;-80
2021/07/08 07:52:34;;;;;;;7.40;2.03;;;26.60;99.90;;;;;;5091077;28;20608;-79
2021/07/08 07:55:00;;;;;;;4.97;1.73;;;26.70;99.90;;;;;;5069395;28;20641;-80
2021/07/08 07:57:26;;;;;;;4.50;2.13;;;27.00;99.90;;;;;;5079161;28;20720;-80
2021/07/08 07:59:52;;;;;;;4.73;2.20;;;27.20;99.90;;;;;;5088208;28;20574;-80
2021/07/08 08:02:20;;;;;;;2.93;2.10;;;27.50;99.90;;;;;;5082882;28;20168;-80
2021/07/08 08:04:53;;;;;;;2.43;1.77;;;27.70;99.90;;;;;;5090941;28;20199;-82
2021/07/08 08:10:04;;;;;;;3.60;2.17;;;28.60;99.90;;;;;;5093719;28;20630;-81
2021/07/08 08:12:30;;;;;;;3.93;1.70;;;29.00;99.90;;;;;;5076622;28;20580;-79
2021/07/08 08:15:02;;;;;;;4.23;1.53;;;29.30;99.90;;;;;;5092564;28;20610;-77
2021/07/08 08:17:27;;;;;;;4.53;1.60;;;29.70;99.90;;;;;;5092950;28;20178;-78
2021/07/08 08:19:53;;;;;;;2.27;1.57;;;30.20;99.90;;;;;;5068394;28;20574;-78
2021/07/08 08:22:20;;;;;;;4.70;1.37;;;30.70;99.90;;;;;;5092033;28;20176;-77
2021/07/08 08:24:46;;;;;;;4.70;1.93;;;31.30;99.90;;;;;;5080625;28;20574;-80
2021/07/08 08:27:11;;;;;;;2.57;1.80;;;31.60;99.70;;;;;;5069326;28;20615;-79
2021/07/08 08:29:38;;;;;;;5.87;1.80;;;32.00;99.10;;;;;;5051630;28;20214;-79
2021/07/08 08:32:04;;;;;;;2.63;1.80;;;32.60;99.30;;;;;;5070174;28;20185;-79
2021/07/08 08:34:30;;;;;;;2.90;1.57;;;33.30;97.80;;;;;;5044509;28;21189;-79
2021/07/08 08:36:55;;;;;;;3.87;1.10;;;33.70;96.20;;;;;;5062823;28;20608;-79
2021/07/08 08:39:21;;;;;;;2.53;1.10;;;34.10;95.00;;;;;;5062248;28;20180;-78
2021/07/08 08:41:47;;;;;;;2.37;1.10;;;34.20;93.40;;;;;;5064295;28;20181;-78
2021/07/08 08:44:12;;;;;;;4.27;1.60;;;34.40;92.40;;;;;;5050826;28;20198;-80
2021/07/08 08:46:38;;;;;;;3.20;1.27;;;34.50;91.10;;;;;;5066249;28;20656;-81
2021/07/08 08:49:05;;;;;;;2.90;1.53;;;34.40;89.60;;;;;;5062206;28;20196;-80
2021/07/08 08:51:32;;;;;;;2.77;1.30;;;34.50;89.30;;;;;;5061844;28;20167;-79
2021/07/08 08:53:58;;;;;;;2.10;1.20;;;34.70;88.40;;;;;;5068526;28;20614;-78
2021/07/08 08:56:24;;;;;;;4.57;1.40;;;35.00;88.20;;;;;;5062940;28;20597;-80
2021/07/08 08:58:50;;;;;;;2.60;1.17;;;35.20;85.10;;;;;;5104600;22;20668;-78
2021/07/08 09:01:17;;;;;;;2.90;1.30;;;35.30;82.60;;;;;;5094313;28;20603;-79
2021/07/08 09:03:44;;;;;;;2.70;1.30;;;35.50;81.90;;;;;;5091522;28;20241;-79
2021/07/08 09:06:14;;;;;;;3.80;1.20;;;35.70;79.50;;;;;;5065915;28;20594;-78
2021/07/08 09:08:47;;;;;;;2.13;1.10;;;35.80;77.30;;;;;;5083295;28;21019;-80
2021/07/08 09:11:16;;;;;;;3.10;1.13;;;36.00;75.80;;;;;;5077171;28;20602;-78
2021/07/08 09:13:42;;;;;;;2.30;1.00;;;36.20;74.50;;;;;;5095797;28;20581;-78
2021/07/08 09:16:27;;;;;;;2.43;1.03;;;36.50;74.10;;;;;;5073860;28;20601;-79
2021/07/08 09:19:12;;;;;;;3.70;1.40;;;36.70;73.00;;;;;;5073138;28;20187;-80
2021/07/08 09:21:46;;;;;;;3.00;1.10;;;37.00;70.20;;;;;;5087574;28;20585;-79
2021/07/08 09:24:31;;;;;;;2.57;1.30;;;37.20;68.90;;;;;;5099475;28;20612;-79
2021/07/08 09:27:08;;;;;;;2.93;1.43;;;37.30;66.60;;;;;;5093651;28;21116;-80
2021/07/08 09:29:38;;;;;;;1.60;1.20;;;37.50;65.80;;;;;;5097751;28;20640;-80
2021/07/08 09:32:13;;;;;;;2.27;1.10;;;37.60;64.30;;;;;;5099940;28;20561;-79
2021/07/08 09:34:40;;;;;;;3.23;1.27;;;37.60;64.60;;;;;;5107769;28;20577;-79
2021/07/08 09:37:10;;;;;;;2.33;1.00;;;37.50;63.70;;;;;;5102998;28;20570;-80
2021/07/08 09:39:45;;;;;;;2.50;0.90;;;37.40;60.60;;;;;;5066997;28;20613;-79
2021/07/08 09:42:14;;;;;;;7.33;1.20;;;37.00;59.90;;;;;;5095182;28;20675;-79
2021/07/08 09:44:40;;;;;;;2.83;1.10;;;36.60;59.80;;;;;;5060493;28;20576;-79
2021/07/08 09:47:24;;;;;;;4.20;1.53;;;36.20;59.80;;;;;;5077013;28;21139;-79
2021/07/08 09:49:51;;;;;;;3.30;1.23;;;36.00;59.90;;;;;;5076945;28;20639;-79
2021/07/08 09:52:17;;;;;;;2.47;0.90;;;35.90;59.80;;;;;;5095839;28;20564;-79
2021/07/08 09:54:50;;;;;;;2.47;1.07;;;35.70;61.00;;;;;;5076762;28;20843;-80
2021/07/08 10:01:54;;;;;;;;;;;;;;;;;;;;;
2021/07/08 10:04:32;;;;;;;2.77;1.30;;;35.00;59.30;;;;;;4983661;28;21030;-78
2021/07/08 10:06:58;;;;;;;5.30;1.27;;;34.60;59.30;;;;;;5028974;28;20598;-77
2021/07/08 10:09:24;;;;;;;3.37;1.37;;;34.30;59.60;;;;;;5050649;28;20217;-78
2021/07/08 10:11:55;;;;;;;2.77;1.10;;;34.10;59.80;;;;;;5086312;28;20575;-78
2021/07/08 10:14:22;;;;;;;3.40;1.47;;;33.80;59.70;;;;;;5088769;28;20177;-77
2021/07/08 10:16:55;;;;;;;1.83;1.13;;;33.50;59.90;;;;;;5073729;28;20573;-78
2021/07/08 10:19:23;;;;;;;4.50;1.23;;;33.40;60.20;;;;;;5058942;28;20615;-77
2021/07/08 10:21:50;;;;;;;3.10;1.27;;;33.20;61.00;;;;;;5074822;28;20665;-77
2021/07/08 10:24:17;;;;;;;2.70;1.10;;;33.10;61.30;;;;;;5075788;28;20593;-77
2021/07/08 10:26:45;;;;;;;2.33;1.20;;;33.00;61.80;;;;;;5057732;28;20582;-78
2021/07/08 10:29:13;;;;;;;1.80;1.10;;;32.90;61.80;;;;;;5041656;28;20634;-78
2021/07/08 10:31:41;;;;;;;2.07;1.33;;;32.70;61.60;;;;;;5076969;28;20616;-78
2021/07/08 10:34:14;;;;;;;4.97;1.40;;;32.50;61.50;;;;;;5074782;28;20888;-79
2021/07/08 10:36:46;;;;;;;2.27;1.33;;;32.40;61.60;;;;;;5064590;28;20600;-79
2021/07/08 10:39:15;;;;;;;7.80;1.23;;;32.20;62.10;;;;;;5072182;28;20637;-78
2021/07/08 10:41:44;;;;;;;3.67;1.67;;;32.00;62.40;;;;;;5078010;28;20947;-80
2021/07/08 10:44:41;;;;;;;5.10;1.83;;;31.80;62.70;;;;;;5061119;28;20945;-79
2021/07/08 10:47:30;;;;;;;2.63;1.50;;;31.70;63.50;;;;;;5077197;28;20616;-79
2021/07/08 10:49:56;;;;;;;5.20;1.40;;;31.70;64.30;;;;;;5073353;28;20641;-79
2021/07/08 10:52:41;;;;;;;5.27;1.10;;;31.80;64.70;;;;;;5075097;28;20577;-80
2021/07/08 10:55:09;;;;;;;2.43;1.47;;;31.80;64.70;;;;;;5076950;28;20168;-80
2021/07/08 10:57:39;;;;;;;3.80;1.30;;;31.90;65.50;;;;;;5070620;28;20596;-80
2021/07/08 11:00:08;;;;;;;2.50;1.40;;;32.00;65.60;;;;;;5078729;28;21206;-78
2021/07/08 11:02:48;;;;;;;3.23;1.67;;;32.10;65.90;;;;;;5077649;28;20587;-76
2021/07/08 11:05:52;;;;;;;6.03;1.40;;;32.10;65.90;;;;;;5098579;28;20602;-78
2021/07/08 11:08:46;;;;;;;4.53;1.47;;;32.20;67.20;;;;;;5088348;28;20622;-78
2021/07/08 11:11:23;;;;;;;3.43;1.23;;;32.40;66.10;;;;;;5094344;28;20624;-77
2021/07/08 11:14:23;;;;;;;2.93;1.00;;;32.50;65.50;;;;;;5094781;28;20563;-77
2021/07/08 11:16:53;;;;;;;2.30;1.07;;;32.40;65.20;;;;;;5076480;28;20930;-77
2021/07/08 11:19:22;;;;;;;4.03;1.30;;;32.40;65.10;;;;;;5075962;28;20728;-77
2021/07/08 11:21:55;;;;;;;2.80;1.00;;;32.30;64.50;;;;;;5094510;28;20577;-77
2021/07/08 11:24:26;;;;;;;2.30;1.20;;;32.30;64.40;;;;;;5081259;28;20623;-79
2021/07/08 11:26:58;;;;;;;3.37;1.73;;;32.20;64.00;;;;;;5094085;28;20598;-79
2021/07/08 11:29:45;;;;;;;4.20;1.27;;;32.10;64.10;;;;;;5093314;28;20644;-81
2021/07/08 11:35:16;;;;;;;3.40;1.20;;;31.80;64.20;;;;;;5094386;28;20566;-79
2021/07/08 11:37:43;;;;;;;3.77;1.10;;;31.70;64.10;;;;;;5076884;28;20587;-79
2021/07/08 11:40:10;;;;;;;2.70;1.20;;;31.60;63.80;;;;;;5097329;28;20614;-79
2021/07/08 11:42:38;;;;;;;2.33;1.00;;;31.40;63.20;;;;;;5097716;28;20570;-78
2021/07/08 11:45:06;;;;;;;4.37;1.13;;;31.20;63.40;;;;;;5097273;28;20576;-78
2021/07/08 11:47:40;;;;;;;3.17;1.23;;;31.10;63.50;;;;;;5078260;28;20576;-79
2021/07/08 11:50:27;;;;;;;4.90;1.50;;;30.90;63.90;;;;;;5078624;28;20633;-78
2021/07/08 11:53:12;;;;;;;2.47;1.20;;;30.80;63.90;;;;;;5075822;28;20604;-78
2021/07/08 11:55:44;;;;;;;2.37;1.10;;;30.60;63.80;;;;;;5092910;28;21172;-79
2021/07/08 11:58:12;;;;;;;2.70;1.00;;;30.50;63.70;;;;;;5093637;28;21113;-79
2021/07/08 12:00:43;;;;;;;1.87;1.10;;;30.40;63.80;;;;;;5096515;28;20652;-78
2021/07/08 12:03:30;;;;;;;1.90;0.93;;;30.20;64.00;;;;;;5096395;28;20581;-78
2021/07/08 12:06:03;;;;;;;3.10;1.27;;;30.00;63.90;;;;;;5058846;28;21171;-79
2021/07/08 12:08:32;;;;;;;4.30;1.23;;;29.90;64.00;;;;;;5092773;28;20704;-79
2021/07/08 12:13:50;;;;;;;2.93;1.23;;;29.60;64.60;;;;;;5093511;28;20581;-78
2021/07/08 12:16:19;;;;;;;4.07;1.70;;;29.50;65.10;;;;;;5074236;28;20907;-78
2021/07/08 12:18:49;;;;;;;5.23;1.63;;;29.40;65.40;;;;;;5093965;28;20605;-78
2021/07/08 12:21:16;;;;;;;6.10;1.40;;;29.40;65.60;;;;;;5075925;28;20624;-80
2021/07/08 12:23:43;;;;;;;2.60;1.30;;;29.30;65.80;;;;;;5092877;28;20605;-78
2021/07/08 12:26:36;;;;;;;2.17;1.30;;;29.30;66.30;;;;;;5092753;28;20672;-79
2021/07/08 12:29:10;;;;;;;2.73;1.20;;;29.20;66.00;;;;;;5092225;28;20720;-78
2021/07/08 12:31:49;;;;;;;6.43;1.57;;;29.10;66.10;;;;;;5093844;28;20576;-78
2021/07/08 12:34:17;;;;;;;4.30;1.40;;;29.00;66.50;;;;;;5098522;28;20582;-78
2021/07/08 12:36:43;;;;;;;4.17;1.23;;;29.00;67.00;;;;;;5095393;28;20565;-79
2021/07/08 12:39:09;;;;;;;1.90;1.00;;;29.00;67.10;;;;;;5097038;28;20624;-79
2021/07/08 12:41:35;;;;;;;2.17;0.93;;;28.90;67.30;;;;;;5077910;28;20574;-79
2021/07/08 12:44:11;;;;;;;2.90;1.20;;;28.90;67.40;;;;;;5095576;28;20357;-79
2021/07/08 12:46:36;;;;;;;5.70;1.67;;;28.80;67.70;;;;;;5095585;28;20655;-79
2021/07/08 12:49:03;;;;;;;3.57;1.57;;;28.80;67.70;;;;;;5079887;28;20668;-80
2021/07/08 12:51:29;;;;;;;2.90;1.23;;;28.80;67.90;;;;;;5097633;28;20577;-79
2021/07/08 12:53:55;;;;;;;3.10;1.20;;;28.80;67.90;;;;;;5076602;28;20726;-78
2021/07/08 12:56:23;;;;;;;1.53;1.10;;;28.80;67.90;;;;;;5082982;28;20186;-78
2021/07/08 12:59:15;;;;;;;1.80;1.20;;;28.80;67.80;;;;;;5078378;28;20206;-78
2021/07/08 13:01:41;;;;;;;2.40;1.47;;;28.80;67.80;;;;;;5056623;28;20582;-78
2021/07/08 13:04:11;;;;;;;1.70;1.60;;;28.80;67.80;;;;;;5092513;28;20592;-78
2021/07/08 13:06:37;;;;;;;2.20;1.30;;;28.70;68.10;;;;;;5094526;28;20174;-78
2021/07/08 13:09:13;;;;;;;6.30;2.07;;;28.70;68.30;;;;;;5095371;28;20728;-78
2021/07/08 13:11:42;;;;;;;3.50;1.80;;;28.70;69.40;;;;;;5094390;28;20168;-79
2021/07/08 13:14:25;;;;;;;3.10;1.47;;;28.60;69.80;;;;;;5096185;28;20586;-78
2021/07/08 13:17:11;;;;;;;2.50;0.90;;;28.60;70.00;;;;;;5078124;28;20780;-79
2021/07/08 13:19:40;;;;;;;2.03;1.00;;;28.50;70.40;;;;;;5075156;28;20708;-79
2021/07/08 13:22:16;;;;;;;3.90;2.37;;;28.50;70.50;;;;;;5091288;28;20578;-79
2021/07/08 13:24:43;;;;;;;4.70;1.87;;;28.50;71.10;;;;;;5092623;28;20612;-78
2021/07/08 13:27:10;;;;;;;4.83;1.67;;;28.40;71.10;;;;;;5075824;28;20977;-79
2021/07/08 13:29:35;;;;;;;4.43;2.13;;;28.40;71.10;;;;;;5076009;28;20641;-79
2021/07/08 13:32:16;;;;;;;5.80;4.03;;;28.40;71.10;;;;;;5095176;28;20615;-79
2021/07/08 13:34:47;;;;;;;3.33;2.63;;;28.30;71.50;;;;;;5079874;28;20160;-79
2021/07/08 13:37:24;;;;;;;3.27;2.50;;;28.30;71.50;;;;;;5097370;28;20558;-79
2021/07/08 13:39:50;;;;;;;6.27;2.80;;;28.20;71.60;;;;;;5097870;28;20605;-79
2021/07/08 13:42:24;;;;;;;2.77;1.63;;;28.20;71.50;;;;;;5060721;28;20574;-79
2021/07/08 13:44:50;;;;;;;3.27;1.57;;;28.10;71.80;;;;;;5093598;28;20569;-79